Wheatland, ND

8:55 PM CDT on July 25, 2014 (GMT -0500)
Home of the Absaraka Crows (KNDABSAR2) Elev 1066 ft | 46.98 °N, 97.39 °W | Change Station

Current weather conditions updated 4 seconds ago

Clear
Clear
73.6 °F
Feels Like 76 °F
N
1.6
Wind Variable Wind from West
Gusts 1.6 mph

Tomorrow is forecast to be Cooler than today.

Today
High -- | Low -- °F
--% Chance of Precip.
Yesterday
High -- | Low -- °F
Precip. -- in
6:01 AM 9:10 PM
Waning Crescent, 1% visible
Pressure 29.75 in
Visibility 10.0 miles
Clouds Clear
Heat Index 76 °F
Dew Point 60 °F
Humidity 62%
Rainfall 0.00 in
Snow Depth Not available.
UV 1 out of 12
Pollen 6.70 out of 12
Air Quality Not available.
Flu Activity Not available.
METAR KFAR 260053Z 31007KT 10SM CLR 26/13 A2976 RMK AO2 SLP073 T02560128

More Conditions Fewer Conditions

Pressure 29.75 in
Visibility 10.0 miles
Clouds Clear
Heat Index 76 °F
Dew Point 60 °F
Humidity 62%
Rainfall 0.00 in
Snow Depth Not available.
UV 1 out of 12
Pollen 6.70 out of 12
Air Quality Not available.
Flu Activity Not available.
METAR KFAR 260053Z 31007KT 10SM CLR 26/13 A2976 RMK AO2 SLP073 T02560128

More Conditions Fewer Conditions

10-Day Weather Forecast

Almanac

Astronomy

Jul. 25, 2014 Rise Set
Actual Time 6:01 AM CDT 9:10 PM CDT
Civil Twilight 5:24 AM CDT 9:46 PM CDT
Nautical Twilight 4:37 AM CDT 10:33 PM CDT
Astronomical Twilight 3:38 AM CDT 11:31 PM CDT
Moon 5:04 AM CDT (7/25) 8:04 PM CDT (7/25)
Length of Visible Light 16h 22m
Length of Day
15h 09m
Tomorrow will be 2m 20s shorter.
Waning Crescent, 1% of the Moon is Illuminated
Today
Waning Crescent
Jul 26
New
Aug 3
First Quarter
Aug 10
Full
Aug 17
Last Quarter

Today's Extremes

State Highs State Lows

Community

WunderPhotos

Upload Photos

1,737,474 photos uploaded!

Nearby

Snow Depth

Station Depth Elevation
No new snow has been reported.

Earthquake Activity

City Distance Mag. Time & Date
No recent earthquake activity has been reported nearby.
Minimum magnitude displayed is 2.5.

Coastal Water Temperatures

Place Temperature
No Stations Reporting

Nearby Weather Stations

Station Location Temp. Heat Index Dew Point Humidity Wind Precip. Elev Updated Type
Home of the Absaraka Crows, Absaraka, ND 73.6 °F 76 °F 60 °F 62% West  at  1.6 mph 0.00 in / hr 1066 ft 8:55 PM CDT Rapid Fire
Westport Beach, West Fargo, ND 77.9 °F 79 °F 58 °F 51% WSW  at  4.2 mph - / hr 896 ft 8:42 PM CDT Normal
EagleRun/WestPortB Official, West Fargo, ND 71.2 °F 74 °F 62 °F 72% NW  at  0.0 mph - / hr 892 ft 8:54 PM CDT Normal

Show More Stations Show Fewer Stations